createdAt,value
2022-11-20T00:01:28.046Z,-2.70
2022-11-20T00:04:00.159Z,-2.70
2022-11-20T00:06:32.292Z,-2.70
2022-11-20T00:09:04.162Z,-2.70
2022-11-20T00:11:36.310Z,-2.70
2022-11-20T00:14:08.100Z,-2.70
2022-11-20T00:16:39.845Z,-2.70
2022-11-20T00:19:11.689Z,-2.70
2022-11-20T00:21:43.454Z,-2.70
2022-11-20T00:24:15.234Z,-2.70
2022-11-20T00:26:46.966Z,-2.70
2022-11-20T00:29:19.077Z,-2.70
2022-11-20T00:31:51.050Z,-2.70
2022-11-20T00:34:25.066Z,-2.70
2022-11-20T00:36:58.935Z,-2.60
2022-11-20T00:39:30.799Z,-2.60
2022-11-20T00:42:02.609Z,-2.60
2022-11-20T00:44:36.614Z,-2.60
2022-11-20T00:47:08.350Z,-2.60
2022-11-20T00:49:40.107Z,-2.60
2022-11-20T00:52:11.857Z,-2.60
2022-11-20T00:54:43.642Z,-2.60
2022-11-20T00:57:17.826Z,-2.60
2022-11-20T00:59:49.626Z,-2.50
2022-11-20T01:02:21.489Z,-2.50
2022-11-20T01:04:53.307Z,-2.50
2022-11-20T01:07:25.112Z,-2.50
2022-11-20T01:09:59.141Z,-2.50
2022-11-20T01:12:30.887Z,-2.50
2022-11-20T01:15:02.947Z,-2.50
2022-11-20T01:17:34.716Z,-2.60
2022-11-20T01:20:06.845Z,-2.60
2022-11-20T01:22:41.069Z,-2.60
2022-11-20T01:25:12.836Z,-2.60
2022-11-20T01:27:44.708Z,-2.70
2022-11-20T01:30:16.510Z,-2.70
2022-11-20T01:32:48.306Z,-2.70
2022-11-20T01:35:21.046Z,-2.80
2022-11-20T01:37:52.809Z,-2.80
2022-11-20T01:40:24.662Z,-2.80
2022-11-20T01:43:21.008Z,-2.80
2022-11-20T01:46:03.224Z,-2.70
2022-11-20T01:48:37.149Z,-2.70
2022-11-20T01:51:13.917Z,-2.70
2022-11-20T01:53:46.270Z,-2.70
2022-11-20T01:56:18.392Z,-2.70
2022-11-20T01:58:53.712Z,-2.60
2022-11-20T02:01:25.757Z,-2.60
2022-11-20T02:03:57.620Z,-2.60
2022-11-20T02:06:34.298Z,-2.60
2022-11-20T02:09:06.030Z,-2.50
2022-11-20T02:11:37.781Z,-2.60
2022-11-20T02:14:10.068Z,-2.50
2022-11-20T02:16:45.891Z,-2.50
2022-11-20T02:19:24.394Z,-2.50
2022-11-20T02:21:59.300Z,-2.50
2022-11-20T02:24:31.342Z,-2.50
2022-11-20T02:27:12.726Z,-2.50
2022-11-20T02:29:55.032Z,-2.50
2022-11-20T02:32:26.795Z,-2.50
2022-11-20T02:34:58.736Z,-2.50
2022-11-20T02:37:33.572Z,-2.60
2022-11-20T02:40:05.638Z,-2.50
2022-11-20T02:42:37.670Z,-2.50
2022-11-20T02:45:09.611Z,-2.50
2022-11-20T02:47:41.379Z,-2.50
2022-11-20T02:50:13.219Z,-2.50
2022-11-20T02:52:44.987Z,-2.60
2022-11-20T02:55:16.731Z,-2.50
2022-11-20T02:57:48.538Z,-2.50
2022-11-20T03:00:22.772Z,-2.50
2022-11-20T03:02:57.046Z,-2.50
2022-11-20T03:05:28.750Z,-2.50
2022-11-20T03:08:00.534Z,-2.60
2022-11-20T03:10:32.272Z,-2.60
2022-11-20T03:13:04.057Z,-2.60
2022-11-20T03:15:36.947Z,-2.60
2022-11-20T03:18:08.700Z,-2.60
2022-11-20T03:20:40.430Z,-2.60
2022-11-20T03:23:12.204Z,-2.60
2022-11-20T03:25:46.357Z,-2.60
2022-11-20T03:28:20.414Z,-2.60
2022-11-20T03:30:52.201Z,-2.60
2022-11-20T03:33:23.930Z,-2.60
2022-11-20T03:36:01.582Z,-2.60
2022-11-20T03:38:33.591Z,-2.60
2022-11-20T03:41:07.211Z,-2.60
2022-11-20T03:43:39.056Z,-2.60
2022-11-20T03:46:10.794Z,-2.60
2022-11-20T03:48:45.324Z,-2.50
2022-11-20T03:51:21.170Z,-2.60
2022-11-20T03:53:53.982Z,-2.50
2022-11-20T03:56:27.305Z,-2.50
2022-11-20T03:58:59.197Z,-2.50
2022-11-20T04:01:35.173Z,-2.50
2022-11-20T04:04:07.091Z,-2.50
2022-11-20T04:06:39.053Z,-2.50
2022-11-20T04:09:10.952Z,-2.50
2022-11-20T04:11:42.778Z,-2.50
2022-11-20T04:14:15.323Z,-2.50
2022-11-20T04:16:47.160Z,-2.50
2022-11-20T04:19:21.805Z,-2.50
2022-11-20T04:21:56.103Z,-2.50
2022-11-20T04:24:30.323Z,-2.40
2022-11-20T04:27:02.018Z,-2.50
2022-11-20T04:29:33.823Z,-2.50
2022-11-20T04:32:05.660Z,-2.50
2022-11-20T04:34:39.878Z,-2.60
2022-11-20T04:37:13.986Z,-2.60
2022-11-20T04:39:45.821Z,-2.60
2022-11-20T04:42:32.280Z,-2.70
2022-11-20T04:45:04.157Z,-2.70
2022-11-20T04:47:35.855Z,-2.80
2022-11-20T04:50:07.936Z,-2.90
2022-11-20T04:52:39.771Z,-3.00
2022-11-20T04:55:11.516Z,-3.10
2022-11-20T04:57:43.244Z,-3.10
2022-11-20T05:00:19.979Z,-3.20
2022-11-20T05:02:51.871Z,-3.30
2022-11-20T05:05:23.683Z,-3.40
2022-11-20T05:07:57.307Z,-3.50
2022-11-20T05:10:29.146Z,-3.60
2022-11-20T05:13:00.843Z,-3.70
2022-11-20T05:15:33.303Z,-3.70
2022-11-20T05:18:05.340Z,-3.80
2022-11-20T05:20:37.420Z,-3.90
2022-11-20T05:23:12.027Z,-3.90
2022-11-20T05:25:43.747Z,-3.90
2022-11-20T05:28:15.471Z,-3.90
2022-11-20T05:30:47.317Z,-3.90
2022-11-20T05:33:19.062Z,-3.80
2022-11-20T05:35:53.281Z,-3.80
2022-11-20T05:38:24.984Z,-3.70
2022-11-20T05:41:03.510Z,-3.70
2022-11-20T05:43:35.996Z,-3.70
2022-11-20T05:46:09.079Z,-3.70
2022-11-20T05:48:42.347Z,-3.70
2022-11-20T05:51:17.385Z,-3.70
2022-11-20T05:53:49.159Z,-3.80
2022-11-20T05:56:21.637Z,-3.80
2022-11-20T05:58:53.443Z,-3.90
2022-11-20T06:01:26.108Z,-3.90
2022-11-20T06:03:57.867Z,-4.00
2022-11-20T06:06:32.447Z,-4.00
2022-11-20T06:09:04.187Z,-4.10
2022-11-20T06:11:36.015Z,-4.20
2022-11-20T06:14:09.933Z,-4.20
2022-11-20T06:16:41.746Z,-4.30
2022-11-20T06:19:13.583Z,-4.30
2022-11-20T06:21:45.397Z,-4.40
2022-11-20T06:24:17.767Z,-4.40
2022-11-20T06:26:49.538Z,-4.50
2022-11-20T06:29:21.569Z,-4.50
2022-11-20T06:31:53.566Z,-4.50
2022-11-20T06:34:25.260Z,-4.60
2022-11-20T06:36:57.011Z,-4.60
2022-11-20T06:39:28.776Z,-4.60
2022-11-20T06:42:00.566Z,-4.70
2022-11-20T06:44:32.268Z,-4.70
2022-11-20T06:47:04.243Z,-4.70
2022-11-20T06:49:38.051Z,-4.70
2022-11-20T06:52:14.752Z,-4.80
2022-11-20T06:54:46.490Z,-4.70
2022-11-20T06:57:20.944Z,-4.70
2022-11-20T06:59:52.680Z,-4.60
2022-11-20T07:02:24.425Z,-4.60
2022-11-20T07:04:56.149Z,-4.40
2022-11-20T07:07:27.935Z,-4.40
2022-11-20T07:09:59.696Z,-4.20
2022-11-20T07:12:31.449Z,-4.10
2022-11-20T07:15:05.582Z,-4.00
2022-11-20T07:17:39.793Z,-3.90
2022-11-20T07:20:11.816Z,-3.80
2022-11-20T07:22:43.844Z,-3.70
2022-11-20T07:25:15.585Z,-3.60
2022-11-20T07:27:47.356Z,-3.50
2022-11-20T07:30:21.827Z,-3.40
2022-11-20T07:32:54.039Z,-3.30
2022-11-20T07:35:25.922Z,-3.30
2022-11-20T07:37:57.692Z,-3.20
2022-11-20T07:40:32.010Z,-3.20
2022-11-20T07:43:03.767Z,-3.10
2022-11-20T07:45:35.539Z,-3.00
2022-11-20T07:48:07.345Z,-3.00
2022-11-20T07:50:39.062Z,-3.00
2022-11-20T07:53:10.801Z,-2.90
2022-11-20T07:55:42.491Z,-3.00
2022-11-20T07:58:15.144Z,-3.00
2022-11-20T08:00:49.272Z,-3.00
2022-11-20T08:03:24.888Z,-2.90
2022-11-20T08:05:59.521Z,-2.90
2022-11-20T08:08:33.646Z,-2.80
2022-11-20T08:11:24.960Z,-2.70
2022-11-20T08:14:15.124Z,-2.60
2022-11-20T08:16:48.498Z,-2.60
2022-11-20T08:19:20.797Z,-2.50
2022-11-20T08:21:52.774Z,-2.40
2022-11-20T08:24:25.863Z,-2.30
2022-11-20T08:27:00.947Z,-2.20
2022-11-20T08:29:32.735Z,-2.20
2022-11-20T08:32:04.566Z,-2.10
2022-11-20T08:34:36.341Z,-2.10
2022-11-20T08:37:08.075Z,-2.10
2022-11-20T08:39:39.900Z,-2.00
2022-11-20T08:42:11.827Z,-2.00
2022-11-20T08:44:44.293Z,-1.90
2022-11-20T08:47:16.055Z,-1.90
2022-11-20T08:49:47.877Z,-1.90
2022-11-20T08:52:21.888Z,-1.90
2022-11-20T08:54:53.743Z,-1.90
2022-11-20T08:57:25.516Z,-1.90
2022-11-20T09:00:06.418Z,-1.90
2022-11-20T09:02:38.895Z,-1.90
2022-11-20T09:05:10.800Z,-1.80
2022-11-20T09:07:43.254Z,-1.80
2022-11-20T09:10:30.428Z,-1.70
2022-11-20T09:13:02.657Z,-1.70
2022-11-20T09:15:35.486Z,-1.70
2022-11-20T09:18:07.335Z,-1.70
2022-11-20T09:20:39.235Z,-1.60
2022-11-20T09:23:11.091Z,-1.50
2022-11-20T09:25:43.069Z,-1.40
2022-11-20T09:28:16.102Z,-1.30
2022-11-20T09:30:47.924Z,-1.30
2022-11-20T09:33:21.791Z,-1.40
2022-11-20T09:35:53.707Z,-1.40
2022-11-20T09:38:25.457Z,-1.30
2022-11-20T09:40:59.204Z,-1.30
2022-11-20T09:43:48.343Z,-1.30
2022-11-20T09:46:30.143Z,-1.30
2022-11-20T09:49:21.077Z,-1.20
2022-11-20T09:51:59.365Z,-1.20
2022-11-20T09:54:33.078Z,-1.30
2022-11-20T09:57:10.864Z,-1.30
2022-11-20T09:59:43.729Z,-1.30
2022-11-20T10:02:25.244Z,-1.20
2022-11-20T10:05:05.503Z,-1.20
2022-11-20T10:07:44.507Z,-1.10
2022-11-20T10:10:18.063Z,-1.10
2022-11-20T10:12:57.477Z,-1.20
2022-11-20T10:15:49.487Z,-1.20
2022-11-20T10:18:21.336Z,-1.10
2022-11-20T10:20:53.059Z,-1.10
2022-11-20T10:23:27.654Z,-1.20
2022-11-20T10:26:02.137Z,-1.20
2022-11-20T10:28:40.052Z,-1.20
2022-11-20T10:31:18.459Z,-1.30
2022-11-20T10:34:11.575Z,-1.20
2022-11-20T10:36:48.037Z,-1.20
2022-11-20T10:39:23.646Z,-1.30
2022-11-20T10:41:55.789Z,-1.20
2022-11-20T10:44:47.707Z,-1.20
2022-11-20T10:47:19.520Z,-1.10
2022-11-20T10:49:55.607Z,-1.10
2022-11-20T10:52:49.963Z,-1.10
2022-11-20T10:55:40.256Z,-1.00
2022-11-20T10:58:16.571Z,-1.00
2022-11-20T11:00:48.397Z,-0.90
2022-11-20T11:03:30.093Z,-0.80
2022-11-20T11:06:08.312Z,-0.80
2022-11-20T11:08:40.484Z,-0.70
2022-11-20T11:11:21.543Z,-0.60
2022-11-20T11:13:53.300Z,-0.60
2022-11-20T11:16:26.707Z,-0.70
2022-11-20T11:19:05.261Z,-0.70
2022-11-20T11:21:42.349Z,-0.80
2022-11-20T11:24:41.181Z,-0.80
2022-11-20T11:27:17.128Z,-0.90
2022-11-20T11:29:49.592Z,-1.00
2022-11-20T11:32:22.928Z,-1.00
2022-11-20T11:35:05.698Z,-1.10
2022-11-20T11:37:38.902Z,-1.10
2022-11-20T11:40:27.539Z,-1.10
2022-11-20T11:43:05.500Z,-1.10
2022-11-20T11:45:37.258Z,-1.10
2022-11-20T11:48:10.067Z,-1.20
2022-11-20T11:50:49.147Z,-1.20
2022-11-20T11:53:26.478Z,-1.10
2022-11-20T11:56:18.490Z,-1.10
2022-11-20T11:58:52.616Z,-1.10
2022-11-20T12:01:27.187Z,-1.10
2022-11-20T12:04:02.862Z,-1.10
2022-11-20T12:06:35.727Z,-1.10
2022-11-20T12:09:10.448Z,-1.10
2022-11-20T12:11:48.283Z,-1.10
2022-11-20T12:14:25.061Z,-1.10
2022-11-20T12:16:58.656Z,-1.00
2022-11-20T12:19:32.907Z,-1.00
2022-11-20T12:22:23.070Z,-0.90
2022-11-20T12:25:00.779Z,-0.90
2022-11-20T12:27:51.228Z,-0.90
2022-11-20T12:30:23.409Z,-0.80
2022-11-20T12:33:14.130Z,-0.70
2022-11-20T12:35:46.862Z,-0.70
2022-11-20T12:38:27.819Z,-0.70
2022-11-20T12:41:02.713Z,-0.70
2022-11-20T12:44:03.305Z,-0.70
2022-11-20T12:47:10.396Z,-0.60
2022-11-20T12:49:45.064Z,-0.70
2022-11-20T12:52:16.858Z,-0.70
2022-11-20T12:55:00.160Z,-0.70
2022-11-20T12:57:34.896Z,-0.70
2022-11-20T13:00:17.861Z,-0.70
2022-11-20T13:03:11.423Z,-0.80
2022-11-20T13:05:57.176Z,-0.80
2022-11-20T13:08:34.068Z,-0.80
2022-11-20T13:11:05.806Z,-0.80
2022-11-20T13:13:44.452Z,-0.80
2022-11-20T13:16:34.851Z,-0.80
2022-11-20T13:19:10.428Z,-0.80
2022-11-20T13:21:52.339Z,-0.80
2022-11-20T13:24:28.723Z,-0.80
2022-11-20T13:27:01.803Z,-0.90
2022-11-20T13:29:33.987Z,-0.80
2022-11-20T13:32:26.118Z,-0.80
2022-11-20T13:34:59.287Z,-0.80
2022-11-20T13:37:32.888Z,-0.80
2022-11-20T13:40:13.813Z,-0.80
2022-11-20T13:42:58.622Z,-0.80
2022-11-20T13:45:31.553Z,-0.80
2022-11-20T13:48:05.355Z,-0.80
2022-11-20T13:50:37.049Z,-0.80
2022-11-20T13:53:17.918Z,-0.80
2022-11-20T13:55:55.717Z,-0.90
2022-11-20T13:58:29.793Z,-0.90
2022-11-20T14:01:14.977Z,-0.90
2022-11-20T14:04:06.406Z,-1.00
2022-11-20T14:06:45.956Z,-1.00
2022-11-20T14:09:27.896Z,-1.00
2022-11-20T14:11:59.980Z,-1.00
2022-11-20T14:14:37.437Z,-1.00
2022-11-20T14:17:19.863Z,-1.00
2022-11-20T14:19:52.363Z,-1.00
2022-11-20T14:22:25.740Z,-1.00
2022-11-20T14:25:12.839Z,-1.00
2022-11-20T14:27:48.887Z,-1.00
2022-11-20T14:30:23.376Z,-1.10
2022-11-20T14:32:57.102Z,-1.10
2022-11-20T14:35:30.299Z,-1.10
2022-11-20T14:38:03.463Z,-1.10
2022-11-20T14:40:36.921Z,-1.10
2022-11-20T14:43:19.381Z,-1.10
2022-11-20T14:46:01.396Z,-1.10
2022-11-20T14:48:44.393Z,-1.10
2022-11-20T14:51:28.471Z,-1.10
2022-11-20T14:54:12.426Z,-1.10
2022-11-20T14:56:58.553Z,-1.20
2022-11-20T14:59:33.352Z,-1.10
2022-11-20T15:02:08.982Z,-1.10
2022-11-20T15:04:50.683Z,-1.10
2022-11-20T15:07:26.808Z,-1.10
2022-11-20T15:10:05.618Z,-1.10
2022-11-20T15:12:41.285Z,-1.10
2022-11-20T15:15:15.974Z,-1.20
2022-11-20T15:17:48.324Z,-1.10
2022-11-20T15:20:20.181Z,-1.20
2022-11-20T15:22:52.055Z,-1.20
2022-11-20T15:25:25.663Z,-1.10
2022-11-20T15:27:57.715Z,-1.20
2022-11-20T15:30:29.587Z,-1.20
2022-11-20T15:33:01.368Z,-1.20
2022-11-20T15:35:35.648Z,-1.20
2022-11-20T15:38:07.443Z,-1.20
2022-11-20T15:40:39.231Z,-1.20
2022-11-20T15:43:13.987Z,-1.20
2022-11-20T15:45:47.346Z,-1.20
2022-11-20T15:48:20.960Z,-1.20
2022-11-20T15:51:04.690Z,-1.20
2022-11-20T15:53:36.720Z,-1.20
2022-11-20T15:56:14.957Z,-1.20
2022-11-20T15:58:46.810Z,-1.20
2022-11-20T16:01:20.565Z,-1.20
2022-11-20T16:03:52.375Z,-1.20
2022-11-20T16:06:24.106Z,-1.30
2022-11-20T16:08:55.905Z,-1.20
2022-11-20T16:11:27.656Z,-1.20
2022-11-20T16:14:18.142Z,-1.20
2022-11-20T16:16:49.926Z,-1.20
2022-11-20T16:19:21.737Z,-1.30
2022-11-20T16:22:01.214Z,-1.30
2022-11-20T16:24:34.712Z,-1.30
2022-11-20T16:27:06.490Z,-1.30
2022-11-20T16:29:38.234Z,-1.30
2022-11-20T16:32:11.093Z,-1.30
2022-11-20T16:34:42.810Z,-1.30
2022-11-20T16:37:14.525Z,-1.30
2022-11-20T16:39:46.406Z,-1.30
2022-11-20T16:42:18.256Z,-1.30
2022-11-20T16:44:50.019Z,-1.40
2022-11-20T16:47:24.285Z,-1.40
2022-11-20T16:49:56.041Z,-1.50
2022-11-20T16:52:27.971Z,-1.50
2022-11-20T16:54:59.762Z,-1.50
2022-11-20T16:57:33.410Z,-1.50
2022-11-20T17:00:05.539Z,-1.50
2022-11-20T17:02:38.257Z,-1.50
2022-11-20T17:05:10.182Z,-1.50
2022-11-20T17:07:41.940Z,-1.60
2022-11-20T17:10:13.774Z,-1.60
2022-11-20T17:12:45.542Z,-1.60
2022-11-20T17:15:19.453Z,-1.60
2022-11-20T17:17:51.210Z,-1.60
2022-11-20T17:20:22.993Z,-1.50
2022-11-20T17:22:54.707Z,-1.60
2022-11-20T17:25:26.448Z,-1.50
2022-11-20T17:27:58.210Z,-1.50
2022-11-20T17:30:30.732Z,-1.50
2022-11-20T17:33:02.652Z,-1.50
2022-11-20T17:35:35.999Z,-1.50
2022-11-20T17:38:07.685Z,-1.50
2022-11-20T17:40:39.485Z,-1.50
2022-11-20T17:43:11.222Z,-1.50
2022-11-20T17:45:45.257Z,-1.50
2022-11-20T17:48:17.006Z,-1.40
2022-11-20T17:50:48.796Z,-1.50
2022-11-20T17:53:21.362Z,-1.50
2022-11-20T17:56:15.233Z,-1.50
2022-11-20T17:58:49.328Z,-1.50
2022-11-20T18:01:21.394Z,-1.50
2022-11-20T18:03:53.185Z,-1.60
2022-11-20T18:06:25.917Z,-1.60
2022-11-20T18:08:58.209Z,-1.60
2022-11-20T18:11:33.767Z,-1.60
2022-11-20T18:14:25.344Z,-1.60
2022-11-20T18:16:58.722Z,-1.60
2022-11-20T18:19:33.026Z,-1.60
2022-11-20T18:22:05.363Z,-1.60
2022-11-20T18:24:37.428Z,-1.60
2022-11-20T18:27:13.412Z,-1.60
2022-11-20T18:29:51.798Z,-1.70
2022-11-20T18:32:24.074Z,-1.70
2022-11-20T18:34:55.889Z,-1.70
2022-11-20T18:37:28.080Z,-1.70
2022-11-20T18:40:00.305Z,-1.80
2022-11-20T18:42:50.755Z,-1.80
2022-11-20T18:45:22.489Z,-1.80
2022-11-20T18:47:54.242Z,-1.80
2022-11-20T18:50:25.998Z,-1.80
2022-11-20T18:52:57.883Z,-1.90
2022-11-20T18:55:29.678Z,-1.90
2022-11-20T18:58:01.433Z,-2.00
2022-11-20T19:00:33.148Z,-1.90
2022-11-20T19:03:04.863Z,-2.00
2022-11-20T19:05:36.610Z,-2.00
2022-11-20T19:08:08.379Z,-2.10
2022-11-20T19:10:40.479Z,-2.10
2022-11-20T19:13:12.276Z,-2.10
2022-11-20T19:15:44.108Z,-2.20
2022-11-20T19:18:15.961Z,-2.20
2022-11-20T19:20:47.745Z,-2.30
2022-11-20T19:23:22.137Z,-2.30
2022-11-20T19:25:58.419Z,-2.30
2022-11-20T19:28:31.052Z,-2.40
2022-11-20T19:31:06.576Z,-2.40
2022-11-20T19:33:38.346Z,-2.40
2022-11-20T19:36:10.772Z,-2.50
2022-11-20T19:38:47.831Z,-2.50
2022-11-20T19:41:28.987Z,-2.50
2022-11-20T19:44:08.433Z,-2.50
2022-11-20T19:46:40.803Z,-2.40
2022-11-20T19:49:15.780Z,-2.40
2022-11-20T19:51:51.110Z,-2.30
2022-11-20T19:54:22.958Z,-2.30
2022-11-20T19:56:55.674Z,-2.20
2022-11-20T19:59:28.256Z,-2.10
2022-11-20T20:02:02.156Z,-2.10
2022-11-20T20:04:33.995Z,-2.00
2022-11-20T20:07:06.399Z,-2.00
2022-11-20T20:09:38.347Z,-1.90
2022-11-20T20:12:10.112Z,-1.90
2022-11-20T20:14:42.056Z,-1.80
2022-11-20T20:17:13.805Z,-1.80
2022-11-20T20:19:45.665Z,-1.70
2022-11-20T20:22:17.374Z,-1.70
2022-11-20T20:24:52.305Z,-1.70
2022-11-20T20:27:24.054Z,-1.60
2022-11-20T20:29:55.831Z,-1.60
2022-11-20T20:32:27.633Z,-1.60
2022-11-20T20:34:59.413Z,-1.60
2022-11-20T20:37:31.211Z,-1.60
2022-11-20T20:40:06.137Z,-1.50
2022-11-20T20:42:39.745Z,-1.50
2022-11-20T20:45:11.558Z,-1.50
2022-11-20T20:47:43.455Z,-1.50
2022-11-20T20:50:15.514Z,-1.50
2022-11-20T20:52:47.309Z,-1.50
2022-11-20T20:55:21.700Z,-1.40
2022-11-20T20:57:55.387Z,-1.40
2022-11-20T21:00:27.185Z,-1.40
2022-11-20T21:02:58.900Z,-1.40
2022-11-20T21:05:30.659Z,-1.30
2022-11-20T21:08:20.784Z,-1.40
2022-11-20T21:10:53.643Z,-1.30
2022-11-20T21:13:25.571Z,-1.30
2022-11-20T21:15:57.483Z,-1.30
2022-11-20T21:18:29.992Z,-1.30
2022-11-20T21:21:22.935Z,-1.30
2022-11-20T21:23:55.205Z,-1.20
2022-11-20T21:26:27.101Z,-1.20
2022-11-20T21:28:59.039Z,-1.20
2022-11-20T21:31:31.270Z,-1.20
2022-11-20T21:34:03.134Z,-1.20
2022-11-20T21:36:34.898Z,-1.10
2022-11-20T21:39:07.327Z,-1.10
2022-11-20T21:41:39.574Z,-1.10
2022-11-20T21:47:07.198Z,-1.10
2022-11-20T21:49:39.059Z,-1.10
2022-11-20T21:52:10.850Z,-1.00
2022-11-20T21:54:43.862Z,-1.00
2022-11-20T21:57:15.711Z,-1.00
2022-11-20T21:59:47.480Z,-1.00
2022-11-20T22:02:22.224Z,-1.00
2022-11-20T22:04:54.984Z,-1.00
2022-11-20T22:07:26.813Z,-1.00
2022-11-20T22:10:00.977Z,-1.00
2022-11-20T22:12:32.759Z,-1.00
2022-11-20T22:15:04.747Z,-1.00
2022-11-20T22:17:55.021Z,-1.00
2022-11-20T22:20:26.732Z,-1.00
2022-11-20T22:23:00.986Z,-1.00
2022-11-20T22:25:33.019Z,-1.00
2022-11-20T22:28:04.832Z,-1.00
2022-11-20T22:30:36.544Z,-1.00
2022-11-20T22:33:13.292Z,-1.00
2022-11-20T22:35:45.667Z,-1.00
2022-11-20T22:38:17.417Z,-1.00
2022-11-20T22:40:49.140Z,-1.00
2022-11-20T22:43:20.900Z,-1.00
2022-11-20T22:45:53.022Z,-1.00
2022-11-20T22:48:24.902Z,-1.00
2022-11-20T22:51:03.815Z,-1.00
2022-11-20T22:53:35.969Z,-1.00
2022-11-20T22:56:08.492Z,-1.00
2022-11-20T22:58:41.357Z,-1.00
2022-11-20T23:01:21.668Z,-1.00
2022-11-20T23:03:55.621Z,-1.00
2022-11-20T23:06:30.186Z,-1.00
2022-11-20T23:09:02.966Z,-1.00
2022-11-20T23:11:37.290Z,-1.10
2022-11-20T23:14:13.451Z,-1.10
2022-11-20T23:16:47.314Z,-1.10
2022-11-20T23:19:22.731Z,-1.10
2022-11-20T23:21:54.415Z,-1.10
2022-11-20T23:24:26.464Z,-1.20
2022-11-20T23:26:58.456Z,-1.20
2022-11-20T23:29:30.326Z,-1.20
2022-11-20T23:32:02.096Z,-1.10
2022-11-20T23:34:33.843Z,-1.20
2022-11-20T23:37:05.544Z,-1.10
2022-11-20T23:39:37.430Z,-1.10
2022-11-20T23:42:09.279Z,-1.10
2022-11-20T23:44:41.081Z,-1.00
2022-11-20T23:47:12.810Z,-1.10
2022-11-20T23:49:44.568Z,-1.00
2022-11-20T23:52:16.307Z,-1.00
2022-11-20T23:54:50.555Z,-1.00
2022-11-20T23:57:24.642Z,-1.00
2022-11-20T23:59:56.364Z,-1.00
